createdAt,value
2023-02-19T00:00:11.710Z,8.33
2023-02-19T00:01:11.819Z,8.26
2023-02-19T00:02:08.746Z,9.36
2023-02-19T00:03:05.492Z,8.73
2023-02-19T00:04:08.382Z,9.25
2023-02-19T00:05:05.613Z,8.55
2023-02-19T00:06:03.604Z,9.19
2023-02-19T00:07:00.359Z,9.16
2023-02-19T00:07:58.178Z,9.24
2023-02-19T00:08:56.294Z,9.61
2023-02-19T00:09:53.111Z,9.57
2023-02-19T00:10:49.870Z,9.35
2023-02-19T00:11:47.905Z,9.03
2023-02-19T00:12:44.749Z,9.05
2023-02-19T00:13:44.549Z,9.32
2023-02-19T00:14:41.265Z,8.59
2023-02-19T00:16:52.228Z,9.11
2023-02-19T00:17:48.954Z,9.24
2023-02-19T00:18:46.578Z,9.03
2023-02-19T00:19:43.383Z,9.16
2023-02-19T00:20:40.224Z,8.99
2023-02-19T00:21:37.044Z,8.71
2023-02-19T00:22:33.900Z,9.32
2023-02-19T00:23:31.229Z,9.42
2023-02-19T00:24:28.023Z,9.03
2023-02-19T00:25:24.747Z,8.04
2023-02-19T00:26:22.441Z,8.68
2023-02-19T00:27:19.227Z,9.15
2023-02-19T00:28:15.981Z,9.01
2023-02-19T00:29:18.839Z,9.21
2023-02-19T00:30:15.666Z,8.97
2023-02-19T00:31:18.857Z,9.10
2023-02-19T00:32:15.783Z,9.10
2023-02-19T00:33:13.364Z,8.86
2023-02-19T00:34:11.082Z,8.47
2023-02-19T00:35:08.009Z,8.74
2023-02-19T00:36:06.385Z,8.72
2023-02-19T00:37:03.246Z,9.02
2023-02-19T00:37:59.997Z,8.83
2023-02-19T00:38:56.917Z,8.73
2023-02-19T00:39:53.722Z,8.91
2023-02-19T00:40:50.448Z,9.53
2023-02-19T00:41:47.827Z,9.53
2023-02-19T00:42:44.574Z,9.37
2023-02-19T00:43:41.410Z,9.57
2023-02-19T00:44:38.203Z,8.94
2023-02-19T00:45:35.850Z,5.73
2023-02-19T00:46:34.354Z,9.45
2023-02-19T00:47:31.169Z,9.18
2023-02-19T00:48:29.839Z,8.91
2023-02-19T00:49:26.564Z,7.84
2023-02-19T00:50:23.356Z,8.93
2023-02-19T00:51:22.811Z,8.80
2023-02-19T00:52:19.601Z,8.32
2023-02-19T00:53:16.353Z,8.95
2023-02-19T00:54:13.260Z,8.77
2023-02-19T00:55:10.086Z,9.32
2023-02-19T00:56:07.362Z,8.90
2023-02-19T00:57:04.203Z,9.30
2023-02-19T00:58:00.992Z,8.99
2023-02-19T00:58:58.168Z,9.28
2023-02-19T00:59:54.964Z,8.22
2023-02-19T01:00:51.784Z,9.03
2023-02-19T01:01:49.795Z,9.20
2023-02-19T01:02:46.781Z,9.74
2023-02-19T01:03:43.621Z,9.05
2023-02-19T01:04:40.511Z,9.01
2023-02-19T01:05:37.364Z,9.80
2023-02-19T01:06:35.797Z,9.27
2023-02-19T01:07:36.122Z,8.99
2023-02-19T01:08:33.620Z,9.97
2023-02-19T01:09:30.382Z,9.74
2023-02-19T01:10:27.279Z,10.06
2023-02-19T01:11:24.211Z,9.95
2023-02-19T01:12:20.990Z,9.96
2023-02-19T01:13:18.100Z,9.97
2023-02-19T01:14:14.945Z,10.38
2023-02-19T01:15:11.803Z,9.74
2023-02-19T01:16:31.060Z,8.35
2023-02-19T01:17:27.836Z,10.00
2023-02-19T01:18:24.594Z,10.07
2023-02-19T01:19:21.391Z,9.52
2023-02-19T01:20:18.352Z,10.39
2023-02-19T01:21:18.750Z,9.11
2023-02-19T01:22:15.604Z,10.50
2023-02-19T01:23:13.863Z,10.25
2023-02-19T01:24:11.246Z,10.15
2023-02-19T01:25:08.243Z,9.72
2023-02-19T01:26:12.555Z,9.96
2023-02-19T01:27:09.374Z,9.51
2023-02-19T01:28:07.146Z,8.60
2023-02-19T01:29:04.795Z,9.37
2023-02-19T01:30:01.771Z,9.25
2023-02-19T01:31:06.626Z,9.60
2023-02-19T01:32:06.192Z,8.77
2023-02-19T01:33:12.002Z,8.70
2023-02-19T01:34:11.900Z,9.55
2023-02-19T01:35:08.615Z,8.97
2023-02-19T01:36:07.441Z,9.11
2023-02-19T01:37:04.360Z,9.38
2023-02-19T01:38:01.095Z,9.37
2023-02-19T01:39:00.275Z,9.56
2023-02-19T01:39:57.110Z,9.18
2023-02-19T01:41:02.352Z,7.77
2023-02-19T01:41:59.179Z,8.48
2023-02-19T01:42:55.957Z,9.22
2023-02-19T01:44:12.548Z,8.98
2023-02-19T01:45:26.206Z,9.10
2023-02-19T01:46:26.836Z,9.57
2023-02-19T01:47:23.919Z,9.33
2023-02-19T01:48:23.643Z,9.69
2023-02-19T01:49:26.055Z,9.38
2023-02-19T01:50:25.036Z,9.17
2023-02-19T01:51:22.897Z,9.92
2023-02-19T01:52:30.878Z,9.54
2023-02-19T01:53:34.422Z,10.00
2023-02-19T01:54:39.488Z,10.05
2023-02-19T01:55:36.888Z,9.39
2023-02-19T01:56:38.430Z,9.77
2023-02-19T01:57:41.987Z,10.37
2023-02-19T01:58:40.786Z,10.53
2023-02-19T01:59:38.673Z,10.54
2023-02-19T02:00:36.237Z,10.61
2023-02-19T02:01:33.464Z,10.13
2023-02-19T02:02:30.415Z,10.29
2023-02-19T02:03:27.247Z,10.58
2023-02-19T02:04:24.186Z,10.86
2023-02-19T02:05:45.628Z,10.72
2023-02-19T02:06:53.217Z,11.01
2023-02-19T02:08:08.497Z,10.71
2023-02-19T02:09:23.920Z,10.40
2023-02-19T02:10:20.822Z,11.13
2023-02-19T02:11:18.741Z,10.93
2023-02-19T02:12:15.548Z,10.79
2023-02-19T02:13:12.357Z,10.34
2023-02-19T02:14:09.204Z,10.97
2023-02-19T02:15:07.020Z,10.90
2023-02-19T02:16:37.160Z,10.03
2023-02-19T02:17:59.598Z,9.81
2023-02-19T02:19:13.171Z,10.84
2023-02-19T02:20:26.393Z,10.91
2023-02-19T02:21:45.912Z,10.83
2023-02-19T02:22:54.742Z,10.77
2023-02-19T02:24:30.624Z,10.92
2023-02-19T02:25:39.377Z,10.95
2023-02-19T02:27:17.636Z,10.93
2023-02-19T02:28:32.890Z,10.85
2023-02-19T02:29:54.313Z,10.81
2023-02-19T02:30:57.366Z,9.31
2023-02-19T02:31:59.949Z,10.67
2023-02-19T02:33:31.295Z,10.31
2023-02-19T02:34:36.742Z,10.19
2023-02-19T02:35:47.971Z,10.43
2023-02-19T02:36:52.891Z,10.52
2023-02-19T02:37:53.229Z,10.03
2023-02-19T02:38:54.227Z,9.84
2023-02-19T02:39:54.255Z,8.56
2023-02-19T02:40:52.146Z,8.40
2023-02-19T02:42:15.512Z,8.32
2023-02-19T02:43:12.716Z,8.97
2023-02-19T02:44:09.544Z,8.83
2023-02-19T02:45:51.193Z,9.23
2023-02-19T02:46:48.063Z,9.10
2023-02-19T02:47:52.885Z,9.29
2023-02-19T02:48:56.883Z,9.06
2023-02-19T02:50:05.315Z,8.59
2023-02-19T02:51:20.315Z,9.33
2023-02-19T02:52:37.312Z,9.34
2023-02-19T02:54:17.037Z,9.56
2023-02-19T02:55:13.971Z,8.75
2023-02-19T02:56:13.825Z,9.23
2023-02-19T02:57:16.301Z,9.19
2023-02-19T02:58:17.048Z,8.57
2023-02-19T02:59:16.540Z,9.50
2023-02-19T03:00:15.004Z,9.66
2023-02-19T03:01:49.264Z,9.71
2023-02-19T03:02:46.014Z,8.87
2023-02-19T03:03:48.277Z,9.15
2023-02-19T03:05:06.216Z,9.75
2023-02-19T03:06:08.718Z,7.95
2023-02-19T03:07:09.462Z,9.24
2023-02-19T03:08:35.543Z,9.80
2023-02-19T03:09:43.229Z,9.57
2023-02-19T03:10:49.206Z,9.54
2023-02-19T03:12:10.657Z,9.45
2023-02-19T03:13:34.556Z,9.07
2023-02-19T03:15:01.226Z,8.31
2023-02-19T03:16:25.210Z,7.36
2023-02-19T03:17:56.046Z,9.19
2023-02-19T03:19:15.724Z,9.15
2023-02-19T03:20:17.830Z,8.72
2023-02-19T03:21:19.651Z,8.51
2023-02-19T03:22:29.931Z,9.01
2023-02-19T03:23:51.552Z,9.09
2023-02-19T03:25:34.873Z,8.97
2023-02-19T03:26:34.312Z,8.82
2023-02-19T03:27:36.116Z,8.88
2023-02-19T03:28:57.193Z,7.70
2023-02-19T03:29:59.130Z,8.38
2023-02-19T03:30:56.156Z,9.12
2023-02-19T03:32:02.106Z,8.52
2023-02-19T03:33:12.785Z,8.98
2023-02-19T03:34:17.334Z,8.45
2023-02-19T03:35:27.484Z,8.38
2023-02-19T03:36:34.245Z,8.71
2023-02-19T03:37:41.744Z,8.43
2023-02-19T03:39:02.517Z,8.40
2023-02-19T03:39:59.764Z,8.73
2023-02-19T03:41:24.206Z,8.85
2023-02-19T03:42:27.775Z,8.17
2023-02-19T03:43:37.567Z,8.71
2023-02-19T03:45:04.551Z,8.65
2023-02-19T03:46:09.481Z,8.85
2023-02-19T03:47:25.201Z,8.96
2023-02-19T03:48:35.156Z,8.96
2023-02-19T03:49:54.878Z,8.81
2023-02-19T03:51:00.556Z,8.90
2023-02-19T03:52:30.224Z,7.91
2023-02-19T03:53:36.279Z,8.98
2023-02-19T03:54:54.249Z,8.82
2023-02-19T03:55:53.760Z,8.94
2023-02-19T03:57:01.828Z,9.06
2023-02-19T03:58:14.849Z,8.80
2023-02-19T03:59:26.528Z,7.98
2023-02-19T04:00:41.698Z,8.10
2023-02-19T04:01:38.372Z,8.75
2023-02-19T04:02:39.432Z,8.70
2023-02-19T04:04:10.570Z,8.87
2023-02-19T04:05:17.141Z,9.04
2023-02-19T04:06:22.589Z,8.73
2023-02-19T04:07:20.667Z,9.01
2023-02-19T04:08:21.871Z,8.55
2023-02-19T04:09:22.072Z,8.46
2023-02-19T04:10:20.948Z,8.40
2023-02-19T04:11:21.400Z,8.23
2023-02-19T04:12:21.178Z,8.32
2023-02-19T04:13:30.597Z,8.40
2023-02-19T04:14:44.650Z,8.68
2023-02-19T04:15:48.682Z,8.78
2023-02-19T04:16:53.234Z,9.07
2023-02-19T04:18:05.573Z,8.98
2023-02-19T04:19:12.375Z,8.79
2023-02-19T04:20:13.871Z,9.07
2023-02-19T04:21:11.224Z,9.00
2023-02-19T04:22:11.755Z,8.98
2023-02-19T04:23:09.024Z,8.65
2023-02-19T04:24:24.318Z,9.01
2023-02-19T04:25:24.069Z,8.48
2023-02-19T04:26:23.038Z,7.59
2023-02-19T04:27:20.218Z,8.94
2023-02-19T04:28:19.024Z,8.16
2023-02-19T04:29:15.856Z,8.24
2023-02-19T04:30:14.776Z,8.53
2023-02-19T04:31:12.287Z,9.14
2023-02-19T04:32:11.814Z,9.10
2023-02-19T04:33:08.703Z,8.30
2023-02-19T04:34:05.575Z,7.95
2023-02-19T04:35:02.414Z,8.74
2023-02-19T04:35:59.389Z,8.39
2023-02-19T04:36:56.226Z,8.50
2023-02-19T04:37:53.026Z,8.34
2023-02-19T04:38:49.780Z,8.51
2023-02-19T04:39:46.632Z,9.10
2023-02-19T04:40:43.450Z,9.11
2023-02-19T04:41:40.389Z,8.59
2023-02-19T04:42:37.171Z,8.57
2023-02-19T04:43:33.929Z,8.47
2023-02-19T04:44:30.608Z,8.83
2023-02-19T04:45:27.463Z,9.01
2023-02-19T04:46:24.255Z,9.03
2023-02-19T04:47:21.068Z,9.10
2023-02-19T04:48:17.959Z,8.80
2023-02-19T04:49:15.000Z,9.13
2023-02-19T04:50:11.902Z,7.15
2023-02-19T04:51:10.344Z,9.13
2023-02-19T04:52:07.284Z,8.88
2023-02-19T04:53:04.149Z,9.22
2023-02-19T04:54:00.873Z,6.65
2023-02-19T04:54:57.581Z,9.12
2023-02-19T04:55:54.584Z,9.06
2023-02-19T04:56:51.339Z,9.07
2023-02-19T04:57:48.195Z,8.81
2023-02-19T04:58:45.674Z,9.17
2023-02-19T04:59:42.486Z,9.11
2023-02-19T05:00:39.231Z,9.11
2023-02-19T05:01:36.122Z,7.46
2023-02-19T05:02:32.959Z,9.07
2023-02-19T05:03:29.851Z,8.90
2023-02-19T05:04:26.761Z,8.98
2023-02-19T05:05:23.484Z,8.47
2023-02-19T05:06:20.368Z,9.00
2023-02-19T05:07:17.103Z,8.24
2023-02-19T05:08:14.123Z,9.28
2023-02-19T05:09:10.880Z,8.90
2023-02-19T05:10:07.916Z,8.40
2023-02-19T05:11:07.247Z,9.01
2023-02-19T05:12:04.140Z,8.85
2023-02-19T05:13:23.471Z,9.08
2023-02-19T05:14:40.717Z,9.02
2023-02-19T05:15:37.615Z,9.18
2023-02-19T05:16:34.477Z,8.98
2023-02-19T05:17:34.527Z,8.79
2023-02-19T05:18:32.642Z,7.84
2023-02-19T05:19:29.495Z,8.69
2023-02-19T05:20:26.268Z,8.66
2023-02-19T05:21:23.035Z,9.18
2023-02-19T05:22:19.915Z,8.43
2023-02-19T05:23:16.734Z,7.74
2023-02-19T05:24:13.518Z,8.55
2023-02-19T05:25:11.635Z,9.13
2023-02-19T05:26:13.012Z,9.28
2023-02-19T05:27:09.857Z,9.22
2023-02-19T05:28:18.739Z,8.86
2023-02-19T05:29:15.642Z,8.82
2023-02-19T05:30:12.988Z,7.87
2023-02-19T05:31:12.258Z,8.65
2023-02-19T05:32:09.502Z,9.26
2023-02-19T05:33:06.271Z,9.21
2023-02-19T05:34:03.546Z,9.00
2023-02-19T05:35:00.378Z,9.06
2023-02-19T05:35:57.209Z,8.05
2023-02-19T05:36:54.052Z,8.12
2023-02-19T05:37:50.907Z,9.15
2023-02-19T05:38:51.746Z,9.22
2023-02-19T05:39:49.654Z,9.31
2023-02-19T05:40:46.660Z,9.07
2023-02-19T05:41:43.461Z,9.32
2023-02-19T05:42:40.263Z,9.46
2023-02-19T05:43:38.426Z,9.14
2023-02-19T05:44:35.113Z,8.58
2023-02-19T05:45:32.346Z,8.85
2023-02-19T05:46:30.039Z,9.52
2023-02-19T05:47:26.876Z,8.55
2023-02-19T05:48:23.634Z,8.41
2023-02-19T05:49:20.367Z,9.36
2023-02-19T05:50:17.243Z,8.67
2023-02-19T05:51:17.012Z,8.27
2023-02-19T05:52:13.828Z,9.70
2023-02-19T05:53:10.636Z,9.42
2023-02-19T05:54:11.426Z,9.23
2023-02-19T05:55:08.352Z,9.13
2023-02-19T05:56:05.474Z,9.48
2023-02-19T05:57:02.266Z,9.64
2023-02-19T05:57:59.212Z,9.35
2023-02-19T05:58:56.756Z,9.04
2023-02-19T05:59:53.565Z,8.73
2023-02-19T06:00:50.579Z,9.33
2023-02-19T06:01:49.522Z,9.07
2023-02-19T06:02:47.211Z,9.68
2023-02-19T06:03:44.134Z,8.42
2023-02-19T06:04:41.019Z,9.64
2023-02-19T06:05:41.040Z,8.92
2023-02-19T06:06:38.737Z,9.59
2023-02-19T06:07:36.195Z,8.77
2023-02-19T06:08:32.945Z,9.74
2023-02-19T06:09:29.829Z,9.52
2023-02-19T06:10:28.348Z,9.83
2023-02-19T06:11:25.708Z,9.53
2023-02-19T06:12:22.888Z,9.09
2023-02-19T06:13:19.613Z,9.45
2023-02-19T06:14:16.499Z,9.46
2023-02-19T06:15:13.259Z,9.27
2023-02-19T06:16:10.689Z,10.01
2023-02-19T06:17:07.474Z,10.27
2023-02-19T06:18:06.802Z,10.06
2023-02-19T06:19:04.800Z,9.70
2023-02-19T06:20:02.147Z,9.88
2023-02-19T06:21:04.081Z,10.46
2023-02-19T06:22:00.954Z,9.81
2023-02-19T06:22:57.885Z,10.60
2023-02-19T06:23:54.832Z,8.94
2023-02-19T06:24:51.687Z,10.44
2023-02-19T06:25:51.048Z,9.81
2023-02-19T06:26:47.811Z,10.60
2023-02-19T06:27:44.647Z,10.27
2023-02-19T06:28:42.548Z,9.83
2023-02-19T06:29:39.606Z,10.63
2023-02-19T06:30:37.215Z,10.36
2023-02-19T06:31:34.062Z,11.04
2023-02-19T06:32:30.949Z,10.62
2023-02-19T06:33:28.339Z,11.26
2023-02-19T06:34:28.037Z,11.21
2023-02-19T06:35:24.722Z,10.03
2023-02-19T06:36:23.061Z,10.87
2023-02-19T06:37:19.760Z,9.53
2023-02-19T06:38:16.554Z,10.79
2023-02-19T06:39:15.831Z,10.72
2023-02-19T06:40:12.627Z,10.16
2023-02-19T06:41:10.938Z,10.17
2023-02-19T06:42:07.878Z,9.31
2023-02-19T06:43:06.783Z,10.66
2023-02-19T06:44:03.627Z,10.28
2023-02-19T06:45:00.373Z,10.29
2023-02-19T06:46:02.067Z,9.41
2023-02-19T06:46:58.920Z,10.48
2023-02-19T06:47:55.743Z,10.33
2023-02-19T06:48:52.546Z,9.62
2023-02-19T06:49:49.308Z,10.48
2023-02-19T06:50:48.839Z,10.43
2023-02-19T06:51:45.662Z,9.91
2023-02-19T06:52:42.482Z,10.31
2023-02-19T06:53:39.393Z,10.71
2023-02-19T06:54:36.160Z,10.36
2023-02-19T06:55:36.868Z,10.00
2023-02-19T06:56:42.123Z,10.61
2023-02-19T06:57:38.865Z,10.32
2023-02-19T06:58:35.738Z,10.79
2023-02-19T06:59:32.519Z,10.33
2023-02-19T07:00:29.280Z,10.60
2023-02-19T07:01:26.886Z,8.44
2023-02-19T07:02:23.953Z,10.52
2023-02-19T07:03:21.291Z,9.80
2023-02-19T07:04:18.626Z,10.08
2023-02-19T07:05:15.460Z,10.71
2023-02-19T07:06:12.259Z,10.62
2023-02-19T07:07:12.231Z,10.21
2023-02-19T07:08:08.992Z,10.32
2023-02-19T07:09:09.610Z,10.75
2023-02-19T07:10:06.636Z,10.19
2023-02-19T07:11:03.744Z,10.27
2023-02-19T07:12:00.472Z,10.79
2023-02-19T07:12:57.256Z,10.99
2023-02-19T07:14:16.272Z,10.79
2023-02-19T07:15:13.057Z,9.82
2023-02-19T07:16:11.380Z,11.11
2023-02-19T07:17:08.159Z,11.07
2023-02-19T07:18:07.165Z,10.68
2023-02-19T07:19:03.983Z,10.64
2023-02-19T07:20:00.917Z,8.99
2023-02-19T07:21:12.267Z,11.14
2023-02-19T07:22:09.263Z,10.02
2023-02-19T07:23:06.039Z,11.21
2023-02-19T07:24:02.782Z,10.49
2023-02-19T07:24:59.580Z,11.33
2023-02-19T07:25:56.539Z,10.89
2023-02-19T07:26:53.308Z,11.35
2023-02-19T07:27:50.095Z,10.90
2023-02-19T07:28:48.946Z,10.71
2023-02-19T07:29:45.688Z,10.67
2023-02-19T07:30:42.497Z,11.15
2023-02-19T07:31:39.480Z,11.69
2023-02-19T07:32:36.548Z,11.37
2023-02-19T07:33:33.306Z,11.50
2023-02-19T07:34:30.047Z,10.46
2023-02-19T07:35:27.508Z,11.70
2023-02-19T07:36:25.633Z,11.81
2023-02-19T07:37:22.497Z,10.97
2023-02-19T07:38:21.716Z,10.31
2023-02-19T07:39:18.627Z,11.70
2023-02-19T07:40:15.611Z,11.89
2023-02-19T07:41:13.068Z,11.31
2023-02-19T07:42:10.276Z,11.93
2023-02-19T07:43:07.022Z,10.87
2023-02-19T07:44:04.039Z,12.01
2023-02-19T07:45:00.888Z,11.80
2023-02-19T07:45:57.964Z,12.38
2023-02-19T07:46:54.761Z,11.32
2023-02-19T07:47:51.546Z,11.72
2023-02-19T07:48:55.569Z,12.21
2023-02-19T07:50:05.576Z,12.37
2023-02-19T07:51:04.338Z,12.50
2023-02-19T07:52:01.269Z,12.41
2023-02-19T07:53:01.329Z,12.60
2023-02-19T07:53:58.155Z,12.50
2023-02-19T07:54:55.035Z,11.67
2023-02-19T07:55:52.055Z,10.51
2023-02-19T07:56:48.925Z,12.06
2023-02-19T07:57:45.696Z,10.61
2023-02-19T07:58:43.326Z,11.89
2023-02-19T07:59:43.604Z,12.10
2023-02-19T08:00:40.454Z,12.67
2023-02-19T08:01:55.616Z,12.20
2023-02-19T08:03:01.819Z,12.97
2023-02-19T08:03:58.622Z,10.54
2023-02-19T08:04:55.427Z,12.61
2023-02-19T08:05:53.865Z,13.37
2023-02-19T08:06:52.663Z,13.42
2023-02-19T08:07:49.399Z,13.51
2023-02-19T08:08:47.481Z,13.13
2023-02-19T08:09:44.252Z,12.98
2023-02-19T08:11:00.882Z,13.49
2023-02-19T08:12:20.983Z,13.30
2023-02-19T08:13:22.917Z,13.62
2023-02-19T08:14:19.705Z,13.48
2023-02-19T08:15:16.564Z,13.79
2023-02-19T08:16:26.618Z,13.68
2023-02-19T08:17:31.223Z,13.43
2023-02-19T08:18:30.873Z,13.74
2023-02-19T08:19:27.662Z,13.40
2023-02-19T08:20:27.600Z,13.68
2023-02-19T08:21:24.541Z,13.95
2023-02-19T08:22:21.343Z,13.89
2023-02-19T08:23:20.756Z,13.35
2023-02-19T08:24:17.496Z,13.28
2023-02-19T08:25:14.293Z,13.26
2023-02-19T08:26:13.682Z,12.75
2023-02-19T08:27:10.434Z,13.36
2023-02-19T08:28:09.688Z,14.27
2023-02-19T08:29:07.041Z,14.18
2023-02-19T08:30:04.598Z,13.94
2023-02-19T08:31:04.786Z,13.41
2023-02-19T08:32:01.699Z,14.32
2023-02-19T08:33:02.337Z,13.34
2023-02-19T08:33:59.351Z,13.89
2023-02-19T08:34:56.103Z,14.33
2023-02-19T08:35:52.941Z,14.00
2023-02-19T08:36:49.816Z,13.77
2023-02-19T08:37:46.577Z,14.09
2023-02-19T08:38:46.123Z,14.36
2023-02-19T08:39:42.866Z,14.15
2023-02-19T08:40:41.062Z,13.86
2023-02-19T08:41:37.944Z,13.99
2023-02-19T08:42:34.745Z,14.10
2023-02-19T08:43:31.494Z,14.51
2023-02-19T08:44:28.459Z,14.32
2023-02-19T08:45:25.246Z,14.42
2023-02-19T08:46:22.883Z,14.45
2023-02-19T08:47:19.659Z,14.52
2023-02-19T08:48:19.921Z,14.08
2023-02-19T08:49:16.719Z,14.39
2023-02-19T08:50:13.606Z,13.64
2023-02-19T08:51:13.574Z,14.64
2023-02-19T08:52:10.537Z,14.47
2023-02-19T08:53:09.554Z,13.91
2023-02-19T08:54:06.504Z,13.71
2023-02-19T08:55:05.635Z,14.82
2023-02-19T08:56:09.240Z,14.89
2023-02-19T08:57:06.046Z,14.47
2023-02-19T08:58:05.409Z,15.09
2023-02-19T08:59:06.410Z,15.21
2023-02-19T09:00:05.945Z,14.11
2023-02-19T09:01:03.083Z,14.50
2023-02-19T09:02:00.495Z,13.31
2023-02-19T09:02:59.187Z,14.17
2023-02-19T09:03:58.342Z,15.36
2023-02-19T09:04:55.105Z,15.19
2023-02-19T09:05:57.496Z,14.04
2023-02-19T09:06:54.453Z,12.48
2023-02-19T09:07:51.250Z,14.79
2023-02-19T09:08:48.141Z,14.27
2023-02-19T09:09:44.984Z,15.21
2023-02-19T09:10:41.938Z,15.23
2023-02-19T09:11:39.948Z,14.79
2023-02-19T09:12:38.283Z,14.50
2023-02-19T09:13:37.106Z,15.30
2023-02-19T09:14:34.997Z,14.43
2023-02-19T09:15:33.342Z,15.00
2023-02-19T09:16:32.298Z,14.79
2023-02-19T09:17:29.019Z,15.64
2023-02-19T09:18:26.960Z,14.89
2023-02-19T09:19:23.817Z,15.49
2023-02-19T09:20:20.628Z,15.34
2023-02-19T09:21:17.524Z,14.60
2023-02-19T09:22:14.374Z,14.93
2023-02-19T09:23:11.398Z,15.44
2023-02-19T09:24:09.743Z,15.29
2023-02-19T09:25:06.652Z,15.30
2023-02-19T09:26:07.591Z,13.97
2023-02-19T09:27:04.842Z,15.30
2023-02-19T09:28:01.643Z,15.29
2023-02-19T09:28:58.482Z,13.94
2023-02-19T09:29:55.220Z,15.34
2023-02-19T09:30:52.187Z,14.97
2023-02-19T09:31:49.065Z,15.51
2023-02-19T09:32:45.953Z,15.59
2023-02-19T09:33:47.539Z,15.38
2023-02-19T09:34:44.311Z,14.84
2023-02-19T09:35:41.036Z,15.16
2023-02-19T09:36:38.608Z,14.89
2023-02-19T09:37:35.413Z,14.82
2023-02-19T09:38:32.206Z,15.06
2023-02-19T09:39:29.549Z,15.39
2023-02-19T09:40:29.171Z,15.30
2023-02-19T09:41:46.473Z,15.33
2023-02-19T09:42:43.948Z,15.39
2023-02-19T09:43:44.823Z,15.11
2023-02-19T09:44:49.734Z,15.22
2023-02-19T09:45:57.131Z,15.21
2023-02-19T09:46:54.457Z,14.84
2023-02-19T09:48:01.065Z,15.43
2023-02-19T09:49:15.880Z,15.05
2023-02-19T09:50:25.115Z,15.00
2023-02-19T09:51:25.500Z,14.39
2023-02-19T09:52:28.115Z,15.74
2023-02-19T09:53:33.882Z,15.48
2023-02-19T09:54:33.684Z,15.04
2023-02-19T09:55:39.236Z,15.67
2023-02-19T09:56:38.232Z,15.84
2023-02-19T09:57:36.722Z,15.35
2023-02-19T09:59:09.587Z,15.64
2023-02-19T10:00:27.714Z,13.82
2023-02-19T10:01:38.046Z,15.39
2023-02-19T10:02:34.969Z,15.41
2023-02-19T10:03:36.084Z,14.73
2023-02-19T10:04:35.267Z,15.40
2023-02-19T10:05:35.876Z,14.84
2023-02-19T10:06:34.249Z,15.66
2023-02-19T10:07:40.341Z,15.24
2023-02-19T10:08:37.968Z,15.74
2023-02-19T10:09:36.270Z,14.74
2023-02-19T10:10:35.837Z,14.89
2023-02-19T10:11:32.648Z,15.21
2023-02-19T10:12:32.061Z,14.65
2023-02-19T10:13:39.916Z,15.68
2023-02-19T10:15:02.144Z,15.55
2023-02-19T10:16:03.789Z,15.16
2023-02-19T10:17:04.576Z,15.79
2023-02-19T10:18:06.322Z,15.20
2023-02-19T10:19:03.162Z,15.81
2023-02-19T10:20:05.284Z,15.02
2023-02-19T10:21:02.304Z,15.50
2023-02-19T10:22:06.196Z,15.99
2023-02-19T10:23:10.819Z,15.61
2023-02-19T10:24:13.708Z,15.90
2023-02-19T10:25:16.794Z,15.15
2023-02-19T10:26:13.676Z,14.95
2023-02-19T10:27:15.587Z,16.00
2023-02-19T10:28:19.135Z,15.96
2023-02-19T10:29:15.913Z,15.53
2023-02-19T10:30:25.093Z,16.11
2023-02-19T10:31:26.150Z,16.16
2023-02-19T10:32:25.924Z,15.45
2023-02-19T10:33:23.737Z,16.14
2023-02-19T10:34:23.953Z,16.20
2023-02-19T10:35:29.730Z,15.49
2023-02-19T10:36:33.196Z,16.10
2023-02-19T10:37:33.558Z,15.46
2023-02-19T10:38:45.361Z,16.17
2023-02-19T10:39:47.087Z,15.23
2023-02-19T10:40:48.492Z,15.37
2023-02-19T10:41:45.385Z,15.38
2023-02-19T10:42:47.712Z,16.19
2023-02-19T10:43:51.573Z,15.36
2023-02-19T10:45:01.483Z,16.12
2023-02-19T10:46:05.031Z,16.02
2023-02-19T10:47:02.287Z,16.12
2023-02-19T10:48:00.545Z,16.20
2023-02-19T10:49:01.783Z,16.29
2023-02-19T10:50:03.998Z,16.21
2023-02-19T10:51:29.890Z,15.93
2023-02-19T10:52:32.770Z,16.22
2023-02-19T10:53:48.641Z,16.10
2023-02-19T10:54:52.047Z,16.06
2023-02-19T10:55:48.822Z,15.34
2023-02-19T10:56:45.728Z,16.23
2023-02-19T10:57:45.705Z,16.24
2023-02-19T10:58:45.047Z,16.49
2023-02-19T10:59:58.634Z,16.34
2023-02-19T11:01:27.086Z,16.37
2023-02-19T11:02:28.523Z,15.60
2023-02-19T11:03:25.940Z,16.47
2023-02-19T11:04:23.704Z,16.56
2023-02-19T11:05:20.939Z,16.56
2023-02-19T11:06:25.898Z,16.58
2023-02-19T11:07:22.916Z,16.65
2023-02-19T11:08:24.577Z,16.50
2023-02-19T11:09:33.335Z,16.79
2023-02-19T11:10:32.201Z,16.86
2023-02-19T11:11:39.156Z,16.60
2023-02-19T11:12:36.142Z,16.62
2023-02-19T11:13:38.077Z,16.87
2023-02-19T11:14:35.218Z,15.95
2023-02-19T11:15:37.486Z,16.81
2023-02-19T11:16:45.096Z,16.66
2023-02-19T11:17:42.058Z,16.01
2023-02-19T11:18:40.811Z,16.81
2023-02-19T11:19:41.350Z,15.85
2023-02-19T11:20:49.361Z,16.25
2023-02-19T11:21:49.612Z,16.12
2023-02-19T11:22:47.015Z,16.48
2023-02-19T11:23:46.940Z,16.70
2023-02-19T11:24:49.855Z,16.72
2023-02-19T11:25:50.116Z,17.22
2023-02-19T11:26:46.966Z,16.00
2023-02-19T11:28:04.183Z,17.19
2023-02-19T11:29:12.177Z,17.38
2023-02-19T11:30:45.756Z,17.19
2023-02-19T11:31:42.613Z,16.93
2023-02-19T11:32:39.398Z,16.91
2023-02-19T11:33:46.833Z,16.44
2023-02-19T11:34:43.629Z,17.07
2023-02-19T11:35:42.831Z,17.26
2023-02-19T11:36:41.424Z,15.26
2023-02-19T11:37:53.732Z,17.08
2023-02-19T11:38:52.982Z,16.69
2023-02-19T11:39:53.610Z,17.33
2023-02-19T11:41:28.216Z,17.31
2023-02-19T11:42:50.745Z,17.27
2023-02-19T11:44:05.774Z,17.22
2023-02-19T11:45:23.606Z,17.49
2023-02-19T11:46:29.201Z,17.58
2023-02-19T11:47:28.751Z,17.67
2023-02-19T11:49:08.052Z,17.89
2023-02-19T11:50:51.639Z,16.13
2023-02-19T11:52:03.457Z,17.77
2023-02-19T11:53:21.073Z,17.91
2023-02-19T11:54:35.122Z,17.78
2023-02-19T11:56:07.155Z,17.90
2023-02-19T11:57:15.827Z,17.81
2023-02-19T11:58:24.591Z,17.84
2023-02-19T11:59:37.198Z,17.61
2023-02-19T12:00:52.811Z,18.02
2023-02-19T12:02:04.736Z,18.03
2023-02-19T12:03:10.180Z,18.01
2023-02-19T12:04:33.305Z,18.09
2023-02-19T12:05:34.007Z,18.06
2023-02-19T12:06:58.561Z,18.05
2023-02-19T12:08:04.387Z,18.16
2023-02-19T12:09:12.107Z,17.00
2023-02-19T12:10:47.628Z,17.93
2023-02-19T12:12:00.795Z,18.31
2023-02-19T12:13:32.546Z,18.24
2023-02-19T12:14:44.416Z,18.11
2023-02-19T12:15:49.432Z,18.22
2023-02-19T12:17:03.256Z,18.17
2023-02-19T12:18:29.001Z,18.00
2023-02-19T12:19:53.478Z,17.89
2023-02-19T12:21:02.207Z,18.09
2023-02-19T12:22:29.195Z,18.24
2023-02-19T12:23:43.129Z,17.60
2023-02-19T12:24:45.823Z,18.49
2023-02-19T12:25:54.739Z,18.46
2023-02-19T12:27:06.336Z,18.39
2023-02-19T12:28:12.312Z,18.31
2023-02-19T12:29:36.894Z,18.49
2023-02-19T12:30:46.132Z,18.57
2023-02-19T12:32:35.176Z,18.53
2023-02-19T12:34:00.909Z,18.28
2023-02-19T12:35:06.989Z,18.43
2023-02-19T12:36:34.656Z,18.48
2023-02-19T12:38:06.956Z,18.39
2023-02-19T12:39:19.648Z,16.87
2023-02-19T12:41:04.977Z,18.28
2023-02-19T12:42:13.220Z,18.39
2023-02-19T12:43:18.635Z,18.35
2023-02-19T12:44:28.595Z,18.57
2023-02-19T12:45:44.468Z,18.60
2023-02-19T12:46:52.698Z,17.91
2023-02-19T12:48:13.387Z,18.06
2023-02-19T12:49:32.458Z,18.26
2023-02-19T12:50:32.143Z,17.69
2023-02-19T12:51:55.294Z,18.51
2023-02-19T12:53:29.283Z,18.47
2023-02-19T12:54:41.554Z,18.28
2023-02-19T12:55:47.978Z,17.27
2023-02-19T12:57:01.129Z,17.82
2023-02-19T12:58:04.448Z,18.49
2023-02-19T12:59:10.593Z,18.26
2023-02-19T13:00:27.891Z,18.68
2023-02-19T13:01:32.338Z,18.74
2023-02-19T13:02:45.193Z,18.41
2023-02-19T13:03:50.277Z,18.53
2023-02-19T13:04:59.559Z,15.84
2023-02-19T13:05:59.306Z,18.51
2023-02-19T13:07:07.282Z,18.54
2023-02-19T13:08:14.383Z,18.45
2023-02-19T13:09:34.492Z,18.51
2023-02-19T13:10:41.891Z,18.05
2023-02-19T13:11:53.204Z,18.11
2023-02-19T13:12:53.210Z,17.98
2023-02-19T13:13:59.782Z,18.26
2023-02-19T13:15:05.125Z,18.88
2023-02-19T13:16:18.479Z,17.16
2023-02-19T13:17:24.032Z,18.98
2023-02-19T13:18:39.996Z,18.80
2023-02-19T13:19:38.742Z,17.67
2023-02-19T13:20:41.071Z,18.87
2023-02-19T13:21:57.292Z,18.43
2023-02-19T13:23:34.679Z,18.06
2023-02-19T13:24:38.043Z,18.62
2023-02-19T13:26:12.036Z,18.94
2023-02-19T13:29:00.313Z,18.96
2023-02-19T13:30:02.795Z,18.97
2023-02-19T13:31:32.079Z,19.11
2023-02-19T13:32:53.854Z,19.22
2023-02-19T13:33:53.376Z,19.28
2023-02-19T13:35:12.306Z,18.67
2023-02-19T13:36:25.956Z,18.67
2023-02-19T13:37:24.931Z,18.98
2023-02-19T13:38:22.704Z,18.98
2023-02-19T13:39:22.645Z,19.03
2023-02-19T13:40:25.257Z,18.98
2023-02-19T13:41:32.360Z,19.00
2023-02-19T13:42:35.059Z,18.99